sensor_id;sensor_type;location;lat;lon;timestamp;temperature;humidity
15131;DHT22;7666;50.920;4.628;2023-06-04T00:01:13;13.50;99.90
15131;DHT22;7666;50.920;4.628;2023-06-04T00:03:59;13.40;99.90
15131;DHT22;7666;50.920;4.628;2023-06-04T00:06:45;13.30;99.90
15131;DHT22;7666;50.920;4.628;2023-06-04T00:09:31;13.30;99.90
15131;DHT22;7666;50.920;4.628;2023-06-04T00:12:17;13.20;99.90
15131;DHT22;7666;50.920;4.628;2023-06-04T00:15:04;13.10;99.90
15131;DHT22;7666;50.920;4.628;2023-06-04T00:17:53;13.10;99.90
15131;DHT22;7666;50.920;4.628;2023-06-04T00:20:39;13.00;99.90
15131;DHT22;7666;50.920;4.628;2023-06-04T00:23:25;13.00;99.90
15131;DHT22;7666;50.920;4.628;2023-06-04T00:26:11;13.00;99.90
15131;DHT22;7666;50.920;4.628;2023-06-04T00:28:57;13.00;99.90
15131;DHT22;7666;50.920;4.628;2023-06-04T00:31:43;13.00;99.90
15131;DHT22;7666;50.920;4.628;2023-06-04T00:34:29;12.90;99.90
15131;DHT22;7666;50.920;4.628;2023-06-04T00:37:15;12.80;99.90
15131;DHT22;7666;50.920;4.628;2023-06-04T00:40:01;12.70;99.90
15131;DHT22;7666;50.920;4.628;2023-06-04T00:42:47;12.70;99.90
15131;DHT22;7666;50.920;4.628;2023-06-04T00:45:35;12.70;99.90
15131;DHT22;7666;50.920;4.628;2023-06-04T00:48:21;12.60;99.90
15131;DHT22;7666;50.920;4.628;2023-06-04T00:51:07;12.60;99.90
15131;DHT22;7666;50.920;4.628;2023-06-04T00:53:54;12.60;99.90
15131;DHT22;7666;50.920;4.628;2023-06-04T00:56:40;12.50;99.90
15131;DHT22;7666;50.920;4.628;2023-06-04T00:59:26;12.50;99.90
15131;DHT22;7666;50.920;4.628;2023-06-04T01:02:15;12.50;99.90
15131;DHT22;7666;50.920;4.628;2023-06-04T01:05:33;12.40;99.90
15131;DHT22;7666;50.920;4.628;2023-06-04T01:08:23;12.40;99.90
15131;DHT22;7666;50.920;4.628;2023-06-04T01:11:09;12.30;99.90
15131;DHT22;7666;50.920;4.628;2023-06-04T01:13:55;12.30;99.90
15131;DHT22;7666;50.920;4.628;2023-06-04T01:16:53;12.30;99.90
15131;DHT22;7666;50.920;4.628;2023-06-04T01:26:01;12.30;99.90
15131;DHT22;7666;50.920;4.628;2023-06-04T01:28:49;12.30;99.90
15131;DHT22;7666;50.920;4.628;2023-06-04T01:31:36;12.30;99.90
15131;DHT22;7666;50.920;4.628;2023-06-04T01:34:22;12.20;99.90
15131;DHT22;7666;50.920;4.628;2023-06-04T01:37:09;12.20;99.90
15131;DHT22;7666;50.920;4.628;2023-06-04T01:39:57;12.20;99.90
15131;DHT22;7666;50.920;4.628;2023-06-04T01:42:43;12.20;99.90
15131;DHT22;7666;50.920;4.628;2023-06-04T01:45:29;12.20;99.90
15131;DHT22;7666;50.920;4.628;2023-06-04T01:48:16;12.20;99.90
15131;DHT22;7666;50.920;4.628;2023-06-04T01:51:02;12.10;99.90
15131;DHT22;7666;50.920;4.628;2023-06-04T01:53:48;12.10;99.90
15131;DHT22;7666;50.920;4.628;2023-06-04T01:56:34;12.00;99.90
15131;DHT22;7666;50.920;4.628;2023-06-04T01:59:20;12.00;99.90
15131;DHT22;7666;50.920;4.628;2023-06-04T02:02:06;12.00;99.90
15131;DHT22;7666;50.920;4.628;2023-06-04T02:04:53;11.90;99.90
15131;DHT22;7666;50.920;4.628;2023-06-04T02:07:43;11.80;99.90
15131;DHT22;7666;50.920;4.628;2023-06-04T02:10:30;11.70;99.90
15131;DHT22;7666;50.920;4.628;2023-06-04T02:13:16;11.60;99.90
15131;DHT22;7666;50.920;4.628;2023-06-04T02:16:03;11.60;99.90
15131;DHT22;7666;50.920;4.628;2023-06-04T02:18:49;11.50;99.90
15131;DHT22;7666;50.920;4.628;2023-06-04T02:21:35;11.50;99.90
15131;DHT22;7666;50.920;4.628;2023-06-04T02:24:22;11.50;99.90
15131;DHT22;7666;50.920;4.628;2023-06-04T02:27:09;11.50;99.90
15131;DHT22;7666;50.920;4.628;2023-06-04T02:29:55;11.50;99.90
15131;DHT22;7666;50.920;4.628;2023-06-04T02:32:41;11.60;99.90
15131;DHT22;7666;50.920;4.628;2023-06-04T02:35:28;11.60;99.90
15131;DHT22;7666;50.920;4.628;2023-06-04T02:38:14;11.60;99.90
15131;DHT22;7666;50.920;4.628;2023-06-04T02:41:00;11.60;99.90
15131;DHT22;7666;50.920;4.628;2023-06-04T02:43:46;11.50;99.90
15131;DHT22;7666;50.920;4.628;2023-06-04T02:46:32;11.50;99.90
15131;DHT22;7666;50.920;4.628;2023-06-04T02:49:18;11.40;99.90
15131;DHT22;7666;50.920;4.628;2023-06-04T02:52:04;11.40;99.90
15131;DHT22;7666;50.920;4.628;2023-06-04T02:54:50;11.40;99.90
15131;DHT22;7666;50.920;4.628;2023-06-04T02:57:36;11.30;99.90
15131;DHT22;7666;50.920;4.628;2023-06-04T03:00:22;11.30;99.90
15131;DHT22;7666;50.920;4.628;2023-06-04T03:03:08;11.30;99.90
15131;DHT22;7666;50.920;4.628;2023-06-04T03:05:54;11.30;99.90
15131;DHT22;7666;50.920;4.628;2023-06-04T03:08:41;11.20;99.90
15131;DHT22;7666;50.920;4.628;2023-06-04T03:11:28;11.20;99.90
15131;DHT22;7666;50.920;4.628;2023-06-04T03:14:14;11.20;99.90
15131;DHT22;7666;50.920;4.628;2023-06-04T03:17:01;11.20;99.90
15131;DHT22;7666;50.920;4.628;2023-06-04T03:19:53;11.10;99.90
15131;DHT22;7666;50.920;4.628;2023-06-04T03:22:39;11.10;99.90
15131;DHT22;7666;50.920;4.628;2023-06-04T03:25:25;11.00;99.90
15131;DHT22;7666;50.920;4.628;2023-06-04T03:28:11;11.00;99.90
15131;DHT22;7666;50.920;4.628;2023-06-04T03:30:57;10.90;99.90
15131;DHT22;7666;50.920;4.628;2023-06-04T03:33:43;10.90;99.90
15131;DHT22;7666;50.920;4.628;2023-06-04T03:36:30;10.80;99.90
15131;DHT22;7666;50.920;4.628;2023-06-04T03:39:23;10.70;99.90
15131;DHT22;7666;50.920;4.628;2023-06-04T03:42:09;10.70;99.90
15131;DHT22;7666;50.920;4.628;2023-06-04T03:44:55;10.80;99.90
15131;DHT22;7666;50.920;4.628;2023-06-04T03:47:43;10.70;99.90
15131;DHT22;7666;50.920;4.628;2023-06-04T03:50:29;10.70;99.90
15131;DHT22;7666;50.920;4.628;2023-06-04T03:53:15;10.70;99.90
15131;DHT22;7666;50.920;4.628;2023-06-04T03:56:01;10.70;99.90
15131;DHT22;7666;50.920;4.628;2023-06-04T03:58:47;10.70;99.90
15131;DHT22;7666;50.920;4.628;2023-06-04T04:01:33;10.70;99.90
15131;DHT22;7666;50.920;4.628;2023-06-04T04:04:19;10.70;99.90
15131;DHT22;7666;50.920;4.628;2023-06-04T04:07:06;10.70;99.90
15131;DHT22;7666;50.920;4.628;2023-06-04T04:09:52;10.80;99.90
15131;DHT22;7666;50.920;4.628;2023-06-04T04:12:38;10.80;99.90
15131;DHT22;7666;50.920;4.628;2023-06-04T04:15:24;10.70;99.90
15131;DHT22;7666;50.920;4.628;2023-06-04T04:18:10;10.80;99.90
15131;DHT22;7666;50.920;4.628;2023-06-04T04:20:56;10.90;99.90
15131;DHT22;7666;50.920;4.628;2023-06-04T04:23:44;11.00;99.90
15131;DHT22;7666;50.920;4.628;2023-06-04T04:26:31;11.10;99.90
15131;DHT22;7666;50.920;4.628;2023-06-04T04:29:16;11.20;99.90
15131;DHT22;7666;50.920;4.628;2023-06-04T04:32:03;11.30;99.90
15131;DHT22;7666;50.920;4.628;2023-06-04T04:35:08;11.40;99.90
15131;DHT22;7666;50.920;4.628;2023-06-04T04:37:55;11.50;99.90
15131;DHT22;7666;50.920;4.628;2023-06-04T04:40:41;11.60;99.90
15131;DHT22;7666;50.920;4.628;2023-06-04T04:43:32;11.70;99.90
15131;DHT22;7666;50.920;4.628;2023-06-04T04:46:18;11.80;99.90
15131;DHT22;7666;50.920;4.628;2023-06-04T04:49:06;11.90;99.90
15131;DHT22;7666;50.920;4.628;2023-06-04T04:51:52;11.90;99.90
15131;DHT22;7666;50.920;4.628;2023-06-04T04:54:38;12.00;99.90
15131;DHT22;7666;50.920;4.628;2023-06-04T04:57:24;12.10;99.90
15131;DHT22;7666;50.920;4.628;2023-06-04T05:00:11;12.30;99.90
15131;DHT22;7666;50.920;4.628;2023-06-04T05:02:57;12.60;99.90
15131;DHT22;7666;50.920;4.628;2023-06-04T05:05:43;13.70;99.90
15131;DHT22;7666;50.920;4.628;2023-06-04T05:08:29;15.00;99.90
15131;DHT22;7666;50.920;4.628;2023-06-04T05:11:15;16.50;99.90
15131;DHT22;7666;50.920;4.628;2023-06-04T05:14:01;17.70;99.90
15131;DHT22;7666;50.920;4.628;2023-06-04T05:16:47;19.00;99.90
15131;DHT22;7666;50.920;4.628;2023-06-04T05:19:34;19.90;99.90
15131;DHT22;7666;50.920;4.628;2023-06-04T05:22:20;20.80;99.90
15131;DHT22;7666;50.920;4.628;2023-06-04T05:25:06;21.60;99.90
15131;DHT22;7666;50.920;4.628;2023-06-04T05:27:55;22.30;99.90
15131;DHT22;7666;50.920;4.628;2023-06-04T05:30:41;22.50;99.90
15131;DHT22;7666;50.920;4.628;2023-06-04T05:33:28;22.90;99.90
15131;DHT22;7666;50.920;4.628;2023-06-04T05:36:14;22.90;99.90
15131;DHT22;7666;50.920;4.628;2023-06-04T05:39:00;23.50;99.90
15131;DHT22;7666;50.920;4.628;2023-06-04T05:41:46;24.00;99.90
15131;DHT22;7666;50.920;4.628;2023-06-04T05:44:32;24.10;99.90
15131;DHT22;7666;50.920;4.628;2023-06-04T05:47:18;24.10;99.90
15131;DHT22;7666;50.920;4.628;2023-06-04T05:50:04;23.60;99.90
15131;DHT22;7666;50.920;4.628;2023-06-04T05:52:51;23.70;99.90
15131;DHT22;7666;50.920;4.628;2023-06-04T05:55:37;24.10;99.90
15131;DHT22;7666;50.920;4.628;2023-06-04T05:58:23;24.60;99.90
15131;DHT22;7666;50.920;4.628;2023-06-04T06:01:09;25.00;99.90
15131;DHT22;7666;50.920;4.628;2023-06-04T06:03:55;24.70;99.90
15131;DHT22;7666;50.920;4.628;2023-06-04T06:06:41;24.30;99.90
15131;DHT22;7666;50.920;4.628;2023-06-04T06:09:34;24.10;99.90
15131;DHT22;7666;50.920;4.628;2023-06-04T06:12:21;24.30;99.90
15131;DHT22;7666;50.920;4.628;2023-06-04T06:15:07;24.40;99.90
15131;DHT22;7666;50.920;4.628;2023-06-04T06:17:54;24.20;99.90
15131;DHT22;7666;50.920;4.628;2023-06-04T06:20:40;23.90;99.90
15131;DHT22;7666;50.920;4.628;2023-06-04T06:23:26;23.60;99.90
15131;DHT22;7666;50.920;4.628;2023-06-04T06:26:12;24.30;99.90
15131;DHT22;7666;50.920;4.628;2023-06-04T06:28:59;24.50;99.90
15131;DHT22;7666;50.920;4.628;2023-06-04T06:31:45;24.70;99.90
15131;DHT22;7666;50.920;4.628;2023-06-04T06:34:31;24.30;99.90
15131;DHT22;7666;50.920;4.628;2023-06-04T06:37:17;24.90;99.90
15131;DHT22;7666;50.920;4.628;2023-06-04T06:40:04;24.80;99.90
15131;DHT22;7666;50.920;4.628;2023-06-04T06:42:50;24.60;99.90
15131;DHT22;7666;50.920;4.628;2023-06-04T06:45:39;25.10;99.90
15131;DHT22;7666;50.920;4.628;2023-06-04T06:48:25;24.60;99.90
15131;DHT22;7666;50.920;4.628;2023-06-04T06:51:11;23.60;99.90
15131;DHT22;7666;50.920;4.628;2023-06-04T06:53:57;23.70;99.90
15131;DHT22;7666;50.920;4.628;2023-06-04T06:56:43;23.30;99.90
15131;DHT22;7666;50.920;4.628;2023-06-04T06:59:29;23.40;99.90
15131;DHT22;7666;50.920;4.628;2023-06-04T07:02:15;23.30;99.90
15131;DHT22;7666;50.920;4.628;2023-06-04T07:05:01;23.20;99.90
15131;DHT22;7666;50.920;4.628;2023-06-04T07:07:47;23.00;99.90
15131;DHT22;7666;50.920;4.628;2023-06-04T07:10:34;22.30;99.90
15131;DHT22;7666;50.920;4.628;2023-06-04T07:13:20;22.00;99.90
15131;DHT22;7666;50.920;4.628;2023-06-04T07:16:06;22.00;99.90
15131;DHT22;7666;50.920;4.628;2023-06-04T07:18:52;21.50;99.90
15131;DHT22;7666;50.920;4.628;2023-06-04T07:21:38;21.10;99.90
15131;DHT22;7666;50.920;4.628;2023-06-04T07:24:24;20.70;99.90
15131;DHT22;7666;50.920;4.628;2023-06-04T07:27:14;20.90;99.90
15131;DHT22;7666;50.920;4.628;2023-06-04T07:30:00;21.00;99.90
15131;DHT22;7666;50.920;4.628;2023-06-04T07:32:47;21.10;99.90
15131;DHT22;7666;50.920;4.628;2023-06-04T07:35:33;21.20;99.90
15131;DHT22;7666;50.920;4.628;2023-06-04T07:38:19;21.10;99.90
15131;DHT22;7666;50.920;4.628;2023-06-04T07:41:06;21.00;99.90
15131;DHT22;7666;50.920;4.628;2023-06-04T07:43:52;21.00;99.90
15131;DHT22;7666;50.920;4.628;2023-06-04T07:46:38;20.90;99.90
15131;DHT22;7666;50.920;4.628;2023-06-04T07:49:24;20.90;99.90
15131;DHT22;7666;50.920;4.628;2023-06-04T07:52:10;21.10;99.90
15131;DHT22;7666;50.920;4.628;2023-06-04T07:54:56;21.30;99.90
15131;DHT22;7666;50.920;4.628;2023-06-04T07:57:42;21.30;99.90
15131;DHT22;7666;50.920;4.628;2023-06-04T08:00:28;21.30;99.90
15131;DHT22;7666;50.920;4.628;2023-06-04T08:03:15;21.40;99.90
15131;DHT22;7666;50.920;4.628;2023-06-04T08:06:01;22.00;99.90
15131;DHT22;7666;50.920;4.628;2023-06-04T08:08:47;22.00;99.90
15131;DHT22;7666;50.920;4.628;2023-06-04T08:11:36;21.80;99.90
15131;DHT22;7666;50.920;4.628;2023-06-04T08:14:22;22.00;99.90
15131;DHT22;7666;50.920;4.628;2023-06-04T08:17:08;22.00;99.90
15131;DHT22;7666;50.920;4.628;2023-06-04T08:19:56;22.00;99.90
15131;DHT22;7666;50.920;4.628;2023-06-04T08:22:42;21.80;99.90
15131;DHT22;7666;50.920;4.628;2023-06-04T08:25:28;22.00;99.90
15131;DHT22;7666;50.920;4.628;2023-06-04T08:28:15;21.90;99.90
15131;DHT22;7666;50.920;4.628;2023-06-04T08:31:01;22.00;99.90
15131;DHT22;7666;50.920;4.628;2023-06-04T08:33:48;22.00;99.90
15131;DHT22;7666;50.920;4.628;2023-06-04T08:36:34;21.80;99.90
15131;DHT22;7666;50.920;4.628;2023-06-04T08:39:20;22.00;99.90
15131;DHT22;7666;50.920;4.628;2023-06-04T08:42:35;22.20;99.90
15131;DHT22;7666;50.920;4.628;2023-06-04T08:45:23;22.10;99.90
15131;DHT22;7666;50.920;4.628;2023-06-04T08:48:12;22.20;99.90
15131;DHT22;7666;50.920;4.628;2023-06-04T08:51:00;22.60;99.90
15131;DHT22;7666;50.920;4.628;2023-06-04T08:53:47;22.70;99.90
15131;DHT22;7666;50.920;4.628;2023-06-04T08:56:36;22.60;99.90
15131;DHT22;7666;50.920;4.628;2023-06-04T08:59:22;22.60;99.90
15131;DHT22;7666;50.920;4.628;2023-06-04T09:02:08;22.90;99.90
15131;DHT22;7666;50.920;4.628;2023-06-04T09:04:55;22.50;99.90
15131;DHT22;7666;50.920;4.628;2023-06-04T09:07:41;22.60;99.90
15131;DHT22;7666;50.920;4.628;2023-06-04T09:10:29;22.50;99.90
15131;DHT22;7666;50.920;4.628;2023-06-04T09:13:22;22.20;99.90
15131;DHT22;7666;50.920;4.628;2023-06-04T09:16:08;22.30;99.90
15131;DHT22;7666;50.920;4.628;2023-06-04T09:18:54;22.50;99.90
15131;DHT22;7666;50.920;4.628;2023-06-04T09:21:50;22.90;99.90
15131;DHT22;7666;50.920;4.628;2023-06-04T09:24:44;23.10;99.90
15131;DHT22;7666;50.920;4.628;2023-06-04T09:27:40;23.40;99.90
15131;DHT22;7666;50.920;4.628;2023-06-04T09:30:26;23.70;99.90
15131;DHT22;7666;50.920;4.628;2023-06-04T09:33:12;23.70;99.90
15131;DHT22;7666;50.920;4.628;2023-06-04T09:35:58;23.90;99.90
15131;DHT22;7666;50.920;4.628;2023-06-04T09:38:45;24.00;99.90
15131;DHT22;7666;50.920;4.628;2023-06-04T09:41:32;23.60;99.20
15131;DHT22;7666;50.920;4.628;2023-06-04T09:44:18;23.40;98.60
15131;DHT22;7666;50.920;4.628;2023-06-04T09:47:04;23.40;99.90
15131;DHT22;7666;50.920;4.628;2023-06-04T09:49:50;23.60;99.90
15131;DHT22;7666;50.920;4.628;2023-06-04T09:52:38;23.60;98.90
15131;DHT22;7666;50.920;4.628;2023-06-04T09:55:26;23.60;99.30
15131;DHT22;7666;50.920;4.628;2023-06-04T09:58:12;23.60;99.90
15131;DHT22;7666;50.920;4.628;2023-06-04T10:01:01;23.40;99.30
15131;DHT22;7666;50.920;4.628;2023-06-04T10:03:48;23.60;99.80
15131;DHT22;7666;50.920;4.628;2023-06-04T10:06:36;23.60;98.60
15131;DHT22;7666;50.920;4.628;2023-06-04T10:09:23;23.60;98.60
15131;DHT22;7666;50.920;4.628;2023-06-04T10:12:14;23.60;99.00
15131;DHT22;7666;50.920;4.628;2023-06-04T10:15:10;23.90;98.90
15131;DHT22;7666;50.920;4.628;2023-06-04T10:17:56;24.20;99.90
15131;DHT22;7666;50.920;4.628;2023-06-04T10:20:43;24.40;98.00
15131;DHT22;7666;50.920;4.628;2023-06-04T10:23:29;24.30;98.50
15131;DHT22;7666;50.920;4.628;2023-06-04T10:26:16;24.00;97.90
15131;DHT22;7666;50.920;4.628;2023-06-04T10:29:02;24.20;97.80
15131;DHT22;7666;50.920;4.628;2023-06-04T10:31:53;24.40;98.20
15131;DHT22;7666;50.920;4.628;2023-06-04T10:34:40;24.20;99.60
15131;DHT22;7666;50.920;4.628;2023-06-04T10:37:26;24.00;98.10
15131;DHT22;7666;50.920;4.628;2023-06-04T10:40:15;24.20;97.30
15131;DHT22;7666;50.920;4.628;2023-06-04T10:43:11;24.20;97.30
15131;DHT22;7666;50.920;4.628;2023-06-04T10:45:57;24.40;97.30
15131;DHT22;7666;50.920;4.628;2023-06-04T10:48:47;24.40;95.80
15131;DHT22;7666;50.920;4.628;2023-06-04T10:51:34;24.50;96.70
15131;DHT22;7666;50.920;4.628;2023-06-04T10:54:23;24.30;94.10
15131;DHT22;7666;50.920;4.628;2023-06-04T10:59:59;24.40;96.10
15131;DHT22;7666;50.920;4.628;2023-06-04T11:02:52;24.50;96.00
15131;DHT22;7666;50.920;4.628;2023-06-04T11:05:40;24.50;96.60
15131;DHT22;7666;50.920;4.628;2023-06-04T11:08:27;24.60;95.70
15131;DHT22;7666;50.920;4.628;2023-06-04T11:11:15;24.50;93.60
15131;DHT22;7666;50.920;4.628;2023-06-04T11:14:10;24.40;94.90
15131;DHT22;7666;50.920;4.628;2023-06-04T11:17:11;24.10;94.70
15131;DHT22;7666;50.920;4.628;2023-06-04T11:19:58;24.20;95.00
15131;DHT22;7666;50.920;4.628;2023-06-04T11:22:54;24.10;95.40
15131;DHT22;7666;50.920;4.628;2023-06-04T11:25:45;24.40;97.80
15131;DHT22;7666;50.920;4.628;2023-06-04T11:28:31;24.80;95.30
15131;DHT22;7666;50.920;4.628;2023-06-04T11:31:18;24.80;96.40
15131;DHT22;7666;50.920;4.628;2023-06-04T11:34:03;24.60;95.10
15131;DHT22;7666;50.920;4.628;2023-06-04T11:36:49;24.60;97.80
15131;DHT22;7666;50.920;4.628;2023-06-04T11:39:38;24.50;97.70
15131;DHT22;7666;50.920;4.628;2023-06-04T11:42:27;24.50;96.40
15131;DHT22;7666;50.920;4.628;2023-06-04T11:45:17;24.50;94.90
15131;DHT22;7666;50.920;4.628;2023-06-04T11:48:05;24.60;96.40
15131;DHT22;7666;50.920;4.628;2023-06-04T11:50:51;24.60;96.80
15131;DHT22;7666;50.920;4.628;2023-06-04T11:53:37;24.50;95.90
15131;DHT22;7666;50.920;4.628;2023-06-04T11:56:25;24.70;95.00
15131;DHT22;7666;50.920;4.628;2023-06-04T11:59:16;24.80;96.20
15131;DHT22;7666;50.920;4.628;2023-06-04T12:02:03;25.20;97.00
15131;DHT22;7666;50.920;4.628;2023-06-04T12:04:49;24.90;97.00
15131;DHT22;7666;50.920;4.628;2023-06-04T12:07:35;24.60;96.00
15131;DHT22;7666;50.920;4.628;2023-06-04T12:10:21;24.50;95.70
15131;DHT22;7666;50.920;4.628;2023-06-04T12:13:10;24.30;97.10
15131;DHT22;7666;50.920;4.628;2023-06-04T12:15:56;24.30;96.20
15131;DHT22;7666;50.920;4.628;2023-06-04T12:18:43;24.80;96.10
15131;DHT22;7666;50.920;4.628;2023-06-04T12:21:29;24.90;95.50
15131;DHT22;7666;50.920;4.628;2023-06-04T12:24:15;24.90;94.70
15131;DHT22;7666;50.920;4.628;2023-06-04T12:27:06;24.90;94.40
15131;DHT22;7666;50.920;4.628;2023-06-04T12:30:00;24.90;94.10
15131;DHT22;7666;50.920;4.628;2023-06-04T12:32:47;25.10;94.20
15131;DHT22;7666;50.920;4.628;2023-06-04T12:35:34;25.10;95.10
15131;DHT22;7666;50.920;4.628;2023-06-04T12:38:20;25.30;93.50
15131;DHT22;7666;50.920;4.628;2023-06-04T12:41:06;25.40;95.70
15131;DHT22;7666;50.920;4.628;2023-06-04T12:43:52;25.60;91.70
15131;DHT22;7666;50.920;4.628;2023-06-04T12:46:38;25.70;90.60
15131;DHT22;7666;50.920;4.628;2023-06-04T12:49:24;25.60;92.50
15131;DHT22;7666;50.920;4.628;2023-06-04T12:52:10;25.50;93.90
15131;DHT22;7666;50.920;4.628;2023-06-04T12:54:56;24.90;92.60
15131;DHT22;7666;50.920;4.628;2023-06-04T12:57:42;24.80;94.00
15131;DHT22;7666;50.920;4.628;2023-06-04T13:00:30;25.00;94.90
15131;DHT22;7666;50.920;4.628;2023-06-04T13:03:16;25.20;93.30
15131;DHT22;7666;50.920;4.628;2023-06-04T13:06:03;25.00;93.60
15131;DHT22;7666;50.920;4.628;2023-06-04T13:08:49;25.10;93.50
15131;DHT22;7666;50.920;4.628;2023-06-04T13:11:38;25.50;92.00
15131;DHT22;7666;50.920;4.628;2023-06-04T13:14:24;25.70;92.60
15131;DHT22;7666;50.920;4.628;2023-06-04T13:17:10;25.50;93.70
15131;DHT22;7666;50.920;4.628;2023-06-04T13:19:56;25.40;91.80
15131;DHT22;7666;50.920;4.628;2023-06-04T13:22:42;25.20;94.00
15131;DHT22;7666;50.920;4.628;2023-06-04T13:25:29;25.40;95.10
15131;DHT22;7666;50.920;4.628;2023-06-04T13:28:18;25.30;94.00
15131;DHT22;7666;50.920;4.628;2023-06-04T13:31:04;25.20;92.70
15131;DHT22;7666;50.920;4.628;2023-06-04T13:33:50;25.50;91.40
15131;DHT22;7666;50.920;4.628;2023-06-04T13:36:36;25.70;92.40
15131;DHT22;7666;50.920;4.628;2023-06-04T13:39:23;25.90;92.50
15131;DHT22;7666;50.920;4.628;2023-06-04T13:42:09;25.50;93.30
15131;DHT22;7666;50.920;4.628;2023-06-04T13:44:55;25.30;93.10
15131;DHT22;7666;50.920;4.628;2023-06-04T13:47:41;25.30;91.80
15131;DHT22;7666;50.920;4.628;2023-06-04T13:50:28;25.60;91.80
15131;DHT22;7666;50.920;4.628;2023-06-04T13:53:14;25.40;92.40
15131;DHT22;7666;50.920;4.628;2023-06-04T13:56:00;25.10;92.40
15131;DHT22;7666;50.920;4.628;2023-06-04T13:58:46;25.10;91.30
15131;DHT22;7666;50.920;4.628;2023-06-04T14:01:32;25.20;91.00
15131;DHT22;7666;50.920;4.628;2023-06-04T14:04:18;25.30;94.00
15131;DHT22;7666;50.920;4.628;2023-06-04T14:07:04;25.50;91.80
15131;DHT22;7666;50.920;4.628;2023-06-04T14:09:51;25.40;91.30
15131;DHT22;7666;50.920;4.628;2023-06-04T14:12:40;25.50;91.30
15131;DHT22;7666;50.920;4.628;2023-06-04T14:15:26;25.30;90.10
15131;DHT22;7666;50.920;4.628;2023-06-04T14:18:12;25.40;91.80
15131;DHT22;7666;50.920;4.628;2023-06-04T14:20:58;25.40;90.60
15131;DHT22;7666;50.920;4.628;2023-06-04T14:23:44;25.60;91.40
15131;DHT22;7666;50.920;4.628;2023-06-04T14:26:30;25.70;92.00
15131;DHT22;7666;50.920;4.628;2023-06-04T14:29:16;25.60;90.30
15131;DHT22;7666;50.920;4.628;2023-06-04T14:32:03;25.50;87.20
15131;DHT22;7666;50.920;4.628;2023-06-04T14:34:49;25.80;87.10
15131;DHT22;7666;50.920;4.628;2023-06-04T14:37:35;25.60;91.80
15131;DHT22;7666;50.920;4.628;2023-06-04T14:40:22;25.30;89.60
15131;DHT22;7666;50.920;4.628;2023-06-04T14:43:08;24.80;88.60
15131;DHT22;7666;50.920;4.628;2023-06-04T14:45:54;24.50;88.20
15131;DHT22;7666;50.920;4.628;2023-06-04T14:48:40;24.60;89.50
15131;DHT22;7666;50.920;4.628;2023-06-04T14:51:25;24.70;91.30
15131;DHT22;7666;50.920;4.628;2023-06-04T14:54:12;24.90;91.20
15131;DHT22;7666;50.920;4.628;2023-06-04T14:56:58;25.20;90.20
15131;DHT22;7666;50.920;4.628;2023-06-04T14:59:44;25.00;88.80
15131;DHT22;7666;50.920;4.628;2023-06-04T15:02:30;24.90;90.20
15131;DHT22;7666;50.920;4.628;2023-06-04T15:05:16;25.10;91.60
15131;DHT22;7666;50.920;4.628;2023-06-04T15:08:02;25.30;89.30
15131;DHT22;7666;50.920;4.628;2023-06-04T15:10:51;25.30;89.30
15131;DHT22;7666;50.920;4.628;2023-06-04T15:13:37;25.20;85.60
15131;DHT22;7666;50.920;4.628;2023-06-04T15:16:23;25.20;90.50
15131;DHT22;7666;50.920;4.628;2023-06-04T15:19:10;25.10;89.30
15131;DHT22;7666;50.920;4.628;2023-06-04T15:21:56;25.20;87.00
15131;DHT22;7666;50.920;4.628;2023-06-04T15:24:42;25.40;90.40
15131;DHT22;7666;50.920;4.628;2023-06-04T15:27:28;25.30;90.00
15131;DHT22;7666;50.920;4.628;2023-06-04T15:30:14;25.30;87.30
15131;DHT22;7666;50.920;4.628;2023-06-04T15:33:00;25.20;90.00
15131;DHT22;7666;50.920;4.628;2023-06-04T15:35:47;25.10;88.00
15131;DHT22;7666;50.920;4.628;2023-06-04T15:38:33;25.10;88.70
15131;DHT22;7666;50.920;4.628;2023-06-04T15:41:19;25.10;88.60
15131;DHT22;7666;50.920;4.628;2023-06-04T15:44:06;24.90;91.20
15131;DHT22;7666;50.920;4.628;2023-06-04T15:46:52;24.80;90.10
15131;DHT22;7666;50.920;4.628;2023-06-04T15:49:38;24.70;91.70
15131;DHT22;7666;50.920;4.628;2023-06-04T15:52:24;24.60;90.40
15131;DHT22;7666;50.920;4.628;2023-06-04T15:55:11;24.60;90.70
15131;DHT22;7666;50.920;4.628;2023-06-04T15:57:57;24.80;90.20
15131;DHT22;7666;50.920;4.628;2023-06-04T16:00:43;24.80;91.80
15131;DHT22;7666;50.920;4.628;2023-06-04T16:03:29;24.50;91.10
15131;DHT22;7666;50.920;4.628;2023-06-04T16:06:15;24.60;90.70
15131;DHT22;7666;50.920;4.628;2023-06-04T16:09:01;24.80;90.20
15131;DHT22;7666;50.920;4.628;2023-06-04T16:11:47;24.80;92.40
15131;DHT22;7666;50.920;4.628;2023-06-04T16:14:33;24.70;93.20
15131;DHT22;7666;50.920;4.628;2023-06-04T16:17:19;24.60;91.80
15131;DHT22;7666;50.920;4.628;2023-06-04T16:20:05;24.60;92.50
15131;DHT22;7666;50.920;4.628;2023-06-04T16:22:51;24.50;92.70
15131;DHT22;7666;50.920;4.628;2023-06-04T16:25:37;24.50;93.30
15131;DHT22;7666;50.920;4.628;2023-06-04T16:28:23;24.30;93.90
15131;DHT22;7666;50.920;4.628;2023-06-04T16:31:09;24.30;93.30
15131;DHT22;7666;50.920;4.628;2023-06-04T16:33:55;24.30;94.70
15131;DHT22;7666;50.920;4.628;2023-06-04T16:36:41;24.40;94.90
15131;DHT22;7666;50.920;4.628;2023-06-04T16:39:28;24.40;93.30
15131;DHT22;7666;50.920;4.628;2023-06-04T16:42:13;24.40;93.00
15131;DHT22;7666;50.920;4.628;2023-06-04T16:45:00;24.20;93.30
15131;DHT22;7666;50.920;4.628;2023-06-04T16:47:46;24.20;95.50
15131;DHT22;7666;50.920;4.628;2023-06-04T16:50:33;24.10;94.20
15131;DHT22;7666;50.920;4.628;2023-06-04T16:53:19;23.90;93.50
15131;DHT22;7666;50.920;4.628;2023-06-04T16:56:05;24.00;93.60
15131;DHT22;7666;50.920;4.628;2023-06-04T16:58:51;24.00;94.60
15131;DHT22;7666;50.920;4.628;2023-06-04T17:01:37;24.00;93.80
15131;DHT22;7666;50.920;4.628;2023-06-04T17:04:25;24.00;93.90
15131;DHT22;7666;50.920;4.628;2023-06-04T17:07:11;24.10;94.10
15131;DHT22;7666;50.920;4.628;2023-06-04T17:09:57;24.00;93.90
15131;DHT22;7666;50.920;4.628;2023-06-04T17:12:43;24.00;94.70
15131;DHT22;7666;50.920;4.628;2023-06-04T17:15:29;23.90;95.20
15131;DHT22;7666;50.920;4.628;2023-06-04T17:18:16;23.70;94.10
15131;DHT22;7666;50.920;4.628;2023-06-04T17:21:02;23.80;94.20
15131;DHT22;7666;50.920;4.628;2023-06-04T17:23:48;23.70;95.70
15131;DHT22;7666;50.920;4.628;2023-06-04T17:26:34;23.60;95.20
15131;DHT22;7666;50.920;4.628;2023-06-04T17:29:20;23.50;95.50
15131;DHT22;7666;50.920;4.628;2023-06-04T17:32:06;23.60;95.30
15131;DHT22;7666;50.920;4.628;2023-06-04T17:34:52;23.60;95.00
15131;DHT22;7666;50.920;4.628;2023-06-04T17:37:38;23.60;95.50
15131;DHT22;7666;50.920;4.628;2023-06-04T17:40:24;23.50;94.70
15131;DHT22;7666;50.920;4.628;2023-06-04T17:43:10;23.50;95.30
15131;DHT22;7666;50.920;4.628;2023-06-04T17:45:57;23.60;96.30
15131;DHT22;7666;50.920;4.628;2023-06-04T17:48:43;23.50;95.70
15131;DHT22;7666;50.920;4.628;2023-06-04T17:51:29;23.50;96.40
15131;DHT22;7666;50.920;4.628;2023-06-04T17:54:15;23.60;97.10
15131;DHT22;7666;50.920;4.628;2023-06-04T17:57:01;23.50;96.30
15131;DHT22;7666;50.920;4.628;2023-06-04T17:59:47;23.50;96.30